sensor_id;sensor_type;location;lat;lon;timestamp;P1;durP1;ratioP1;P2;durP2;ratioP2
3257;SDS011;1641;51.306;12.384;2022-08-19T00:02:22;47.23;;;33.93;;
3257;SDS011;1641;51.306;12.384;2022-08-19T00:04:50;45.75;;;31.90;;
3257;SDS011;1641;51.306;12.384;2022-08-19T00:07:17;53.47;;;36.30;;
3257;SDS011;1641;51.306;12.384;2022-08-19T00:09:49;90.57;;;53.47;;
3257;SDS011;1641;51.306;12.384;2022-08-19T00:14:40;45.73;;;32.60;;
3257;SDS011;1641;51.306;12.384;2022-08-19T00:17:06;62.90;;;41.75;;
3257;SDS011;1641;51.306;12.384;2022-08-19T00:19:36;48.33;;;33.33;;
3257;SDS011;1641;51.306;12.384;2022-08-19T00:22:02;53.35;;;37.33;;
3257;SDS011;1641;51.306;12.384;2022-08-19T00:24:28;58.28;;;35.70;;
3257;SDS011;1641;51.306;12.384;2022-08-19T00:26:53;59.28;;;37.10;;
3257;SDS011;1641;51.306;12.384;2022-08-19T00:29:21;52.67;;;36.80;;
3257;SDS011;1641;51.306;12.384;2022-08-19T00:31:47;52.22;;;34.28;;
3257;SDS011;1641;51.306;12.384;2022-08-19T00:34:14;52.67;;;35.58;;
3257;SDS011;1641;51.306;12.384;2022-08-19T00:36:40;51.95;;;35.35;;
3257;SDS011;1641;51.306;12.384;2022-08-19T00:39:06;50.45;;;34.28;;
3257;SDS011;1641;51.306;12.384;2022-08-19T00:41:32;51.45;;;34.97;;
3257;SDS011;1641;51.306;12.384;2022-08-19T00:44:05;53.00;;;35.13;;
3257;SDS011;1641;51.306;12.384;2022-08-19T00:46:37;57.03;;;37.03;;
3257;SDS011;1641;51.306;12.384;2022-08-19T00:49:09;49.67;;;34.72;;
3257;SDS011;1641;51.306;12.384;2022-08-19T00:51:39;56.85;;;35.92;;
3257;SDS011;1641;51.306;12.384;2022-08-19T00:54:06;67.18;;;42.88;;
3257;SDS011;1641;51.306;12.384;2022-08-19T00:56:32;57.67;;;36.38;;
3257;SDS011;1641;51.306;12.384;2022-08-19T00:58:58;55.50;;;37.03;;
3257;SDS011;1641;51.306;12.384;2022-08-19T01:01:24;62.25;;;40.08;;
3257;SDS011;1641;51.306;12.384;2022-08-19T01:03:50;58.13;;;37.22;;
3257;SDS011;1641;51.306;12.384;2022-08-19T01:06:15;55.30;;;37.85;;
3257;SDS011;1641;51.306;12.384;2022-08-19T01:08:40;58.10;;;38.50;;
3257;SDS011;1641;51.306;12.384;2022-08-19T01:11:06;61.30;;;39.10;;
3257;SDS011;1641;51.306;12.384;2022-08-19T01:13:32;64.38;;;41.13;;
3257;SDS011;1641;51.306;12.384;2022-08-19T01:16:00;61.08;;;37.85;;
3257;SDS011;1641;51.306;12.384;2022-08-19T01:18:29;59.38;;;40.95;;
3257;SDS011;1641;51.306;12.384;2022-08-19T01:20:56;69.25;;;42.03;;
3257;SDS011;1641;51.306;12.384;2022-08-19T01:23:26;64.60;;;39.85;;
3257;SDS011;1641;51.306;12.384;2022-08-19T01:26:07;60.03;;;39.58;;
3257;SDS011;1641;51.306;12.384;2022-08-19T01:28:35;63.40;;;40.33;;
3257;SDS011;1641;51.306;12.384;2022-08-19T01:31:02;57.20;;;39.85;;
3257;SDS011;1641;51.306;12.384;2022-08-19T01:33:27;67.72;;;42.28;;
3257;SDS011;1641;51.306;12.384;2022-08-19T01:36:03;62.28;;;41.00;;
3257;SDS011;1641;51.306;12.384;2022-08-19T01:38:41;71.15;;;42.65;;
3257;SDS011;1641;51.306;12.384;2022-08-19T01:41:08;72.93;;;46.17;;
3257;SDS011;1641;51.306;12.384;2022-08-19T01:43:34;66.05;;;42.05;;
3257;SDS011;1641;51.306;12.384;2022-08-19T01:46:00;66.63;;;42.78;;
3257;SDS011;1641;51.306;12.384;2022-08-19T01:48:26;65.55;;;41.58;;
3257;SDS011;1641;51.306;12.384;2022-08-19T01:50:54;65.80;;;41.95;;
3257;SDS011;1641;51.306;12.384;2022-08-19T01:53:19;68.72;;;41.92;;
3257;SDS011;1641;51.306;12.384;2022-08-19T01:55:47;59.65;;;39.67;;
3257;SDS011;1641;51.306;12.384;2022-08-19T01:58:18;60.17;;;40.00;;
3257;SDS011;1641;51.306;12.384;2022-08-19T02:00:47;65.88;;;40.72;;
3257;SDS011;1641;51.306;12.384;2022-08-19T02:03:16;70.75;;;42.95;;
3257;SDS011;1641;51.306;12.384;2022-08-19T02:05:42;65.03;;;42.38;;
3257;SDS011;1641;51.306;12.384;2022-08-19T02:08:08;63.13;;;41.90;;
3257;SDS011;1641;51.306;12.384;2022-08-19T02:10:37;69.32;;;44.30;;
3257;SDS011;1641;51.306;12.384;2022-08-19T02:13:03;64.93;;;41.03;;
3257;SDS011;1641;51.306;12.384;2022-08-19T02:15:29;73.05;;;45.88;;
3257;SDS011;1641;51.306;12.384;2022-08-19T02:17:54;72.93;;;45.08;;
3257;SDS011;1641;51.306;12.384;2022-08-19T02:20:19;76.07;;;44.53;;
3257;SDS011;1641;51.306;12.384;2022-08-19T02:22:48;69.22;;;43.78;;
3257;SDS011;1641;51.306;12.384;2022-08-19T02:25:13;70.25;;;44.70;;
3257;SDS011;1641;51.306;12.384;2022-08-19T02:27:42;69.60;;;41.35;;
3257;SDS011;1641;51.306;12.384;2022-08-19T02:30:10;71.20;;;44.08;;
3257;SDS011;1641;51.306;12.384;2022-08-19T02:32:37;68.10;;;43.60;;
3257;SDS011;1641;51.306;12.384;2022-08-19T02:35:09;70.20;;;42.97;;
3257;SDS011;1641;51.306;12.384;2022-08-19T02:37:34;72.95;;;43.03;;
3257;SDS011;1641;51.306;12.384;2022-08-19T02:40:18;64.47;;;41.67;;
3257;SDS011;1641;51.306;12.384;2022-08-19T02:42:44;66.72;;;43.05;;
3257;SDS011;1641;51.306;12.384;2022-08-19T02:45:10;68.25;;;44.80;;
3257;SDS011;1641;51.306;12.384;2022-08-19T02:47:36;63.60;;;41.97;;
3257;SDS011;1641;51.306;12.384;2022-08-19T02:50:02;69.82;;;44.42;;
3257;SDS011;1641;51.306;12.384;2022-08-19T02:52:29;66.28;;;42.70;;
3257;SDS011;1641;51.306;12.384;2022-08-19T02:54:54;55.47;;;37.20;;
3257;SDS011;1641;51.306;12.384;2022-08-19T02:57:22;66.15;;;39.92;;
3257;SDS011;1641;51.306;12.384;2022-08-19T02:59:48;65.50;;;41.10;;
3257;SDS011;1641;51.306;12.384;2022-08-19T03:02:13;60.10;;;40.60;;
3257;SDS011;1641;51.306;12.384;2022-08-19T03:04:38;64.25;;;40.33;;
3257;SDS011;1641;51.306;12.384;2022-08-19T03:07:03;57.67;;;40.67;;
3257;SDS011;1641;51.306;12.384;2022-08-19T03:09:38;57.20;;;36.30;;
3257;SDS011;1641;51.306;12.384;2022-08-19T03:12:03;53.28;;;39.20;;
3257;SDS011;1641;51.306;12.384;2022-08-19T03:14:30;55.30;;;37.10;;
3257;SDS011;1641;51.306;12.384;2022-08-19T03:16:59;53.83;;;36.67;;
3257;SDS011;1641;51.306;12.384;2022-08-19T03:19:25;51.08;;;36.13;;
3257;SDS011;1641;51.306;12.384;2022-08-19T03:21:51;46.70;;;33.85;;
3257;SDS011;1641;51.306;12.384;2022-08-19T03:24:16;47.92;;;35.00;;
3257;SDS011;1641;51.306;12.384;2022-08-19T03:26:44;43.72;;;32.60;;
3257;SDS011;1641;51.306;12.384;2022-08-19T03:29:12;49.08;;;35.22;;
3257;SDS011;1641;51.306;12.384;2022-08-19T03:31:39;48.40;;;35.40;;
3257;SDS011;1641;51.306;12.384;2022-08-19T03:34:12;44.55;;;33.83;;
3257;SDS011;1641;51.306;12.384;2022-08-19T03:36:39;47.35;;;32.40;;
3257;SDS011;1641;51.306;12.384;2022-08-19T03:39:05;44.72;;;32.03;;
3257;SDS011;1641;51.306;12.384;2022-08-19T03:41:37;46.50;;;34.33;;
3257;SDS011;1641;51.306;12.384;2022-08-19T03:44:04;45.38;;;34.17;;
3257;SDS011;1641;51.306;12.384;2022-08-19T03:46:33;47.65;;;34.13;;
3257;SDS011;1641;51.306;12.384;2022-08-19T03:48:59;46.25;;;34.50;;
3257;SDS011;1641;51.306;12.384;2022-08-19T03:51:30;43.35;;;33.70;;
3257;SDS011;1641;51.306;12.384;2022-08-19T03:53:58;42.10;;;32.78;;
3257;SDS011;1641;51.306;12.384;2022-08-19T03:56:25;44.65;;;32.17;;
3257;SDS011;1641;51.306;12.384;2022-08-19T03:59:02;45.60;;;35.08;;
3257;SDS011;1641;51.306;12.384;2022-08-19T04:01:28;46.30;;;33.75;;
3257;SDS011;1641;51.306;12.384;2022-08-19T04:03:58;48.78;;;33.85;;
3257;SDS011;1641;51.306;12.384;2022-08-19T04:06:25;47.08;;;33.60;;
3257;SDS011;1641;51.306;12.384;2022-08-19T04:08:53;45.80;;;32.67;;
3257;SDS011;1641;51.306;12.384;2022-08-19T04:11:24;46.45;;;34.45;;
3257;SDS011;1641;51.306;12.384;2022-08-19T04:13:52;45.22;;;33.30;;
3257;SDS011;1641;51.306;12.384;2022-08-19T04:16:19;44.70;;;34.08;;
3257;SDS011;1641;51.306;12.384;2022-08-19T04:18:46;50.25;;;35.20;;
3257;SDS011;1641;51.306;12.384;2022-08-19T04:21:16;48.00;;;32.70;;
3257;SDS011;1641;51.306;12.384;2022-08-19T04:23:43;41.55;;;32.28;;
3257;SDS011;1641;51.306;12.384;2022-08-19T04:26:24;41.15;;;32.33;;
3257;SDS011;1641;51.306;12.384;2022-08-19T04:28:51;51.78;;;35.47;;
3257;SDS011;1641;51.306;12.384;2022-08-19T04:31:21;47.85;;;35.72;;
3257;SDS011;1641;51.306;12.384;2022-08-19T04:33:54;52.63;;;36.28;;
3257;SDS011;1641;51.306;12.384;2022-08-19T04:36:23;53.53;;;36.55;;
3257;SDS011;1641;51.306;12.384;2022-08-19T04:38:53;55.00;;;36.03;;
3257;SDS011;1641;51.306;12.384;2022-08-19T04:41:19;54.53;;;37.58;;
3257;SDS011;1641;51.306;12.384;2022-08-19T04:44:03;58.45;;;39.35;;
3257;SDS011;1641;51.306;12.384;2022-08-19T04:46:29;60.67;;;40.50;;
3257;SDS011;1641;51.306;12.384;2022-08-19T04:48:57;64.20;;;42.85;;
3257;SDS011;1641;51.306;12.384;2022-08-19T04:51:23;59.67;;;41.38;;
3257;SDS011;1641;51.306;12.384;2022-08-19T04:53:49;65.80;;;44.35;;
3257;SDS011;1641;51.306;12.384;2022-08-19T04:56:15;61.90;;;41.97;;
3257;SDS011;1641;51.306;12.384;2022-08-19T04:58:42;63.20;;;44.30;;
3257;SDS011;1641;51.306;12.384;2022-08-19T05:01:09;63.20;;;41.88;;
3257;SDS011;1641;51.306;12.384;2022-08-19T05:03:37;59.25;;;42.67;;
3257;SDS011;1641;51.306;12.384;2022-08-19T05:06:05;60.15;;;41.70;;
3257;SDS011;1641;51.306;12.384;2022-08-19T05:08:32;64.95;;;42.47;;
3257;SDS011;1641;51.306;12.384;2022-08-19T05:10:59;63.78;;;43.05;;
3257;SDS011;1641;51.306;12.384;2022-08-19T05:13:24;61.05;;;41.20;;
3257;SDS011;1641;51.306;12.384;2022-08-19T05:15:55;62.92;;;42.92;;
3257;SDS011;1641;51.306;12.384;2022-08-19T05:18:21;56.57;;;39.57;;
3257;SDS011;1641;51.306;12.384;2022-08-19T05:21:10;57.22;;;41.00;;
3257;SDS011;1641;51.306;12.384;2022-08-19T05:23:55;59.80;;;43.63;;
3257;SDS011;1641;51.306;12.384;2022-08-19T05:26:22;57.60;;;42.17;;
3257;SDS011;1641;51.306;12.384;2022-08-19T05:28:47;60.60;;;39.10;;
3257;SDS011;1641;51.306;12.384;2022-08-19T05:31:12;64.13;;;42.47;;
3257;SDS011;1641;51.306;12.384;2022-08-19T05:33:38;64.50;;;41.92;;
3257;SDS011;1641;51.306;12.384;2022-08-19T05:36:04;68.63;;;44.13;;
3257;SDS011;1641;51.306;12.384;2022-08-19T05:38:32;62.30;;;43.45;;
3257;SDS011;1641;51.306;12.384;2022-08-19T05:40:58;65.30;;;43.25;;
3257;SDS011;1641;51.306;12.384;2022-08-19T05:43:23;66.80;;;43.58;;
3257;SDS011;1641;51.306;12.384;2022-08-19T05:45:48;71.38;;;47.17;;
3257;SDS011;1641;51.306;12.384;2022-08-19T05:48:15;70.75;;;46.33;;
3257;SDS011;1641;51.306;12.384;2022-08-19T05:50:42;68.85;;;44.95;;
3257;SDS011;1641;51.306;12.384;2022-08-19T05:53:10;69.13;;;45.20;;
3257;SDS011;1641;51.306;12.384;2022-08-19T05:55:35;71.32;;;44.00;;
3257;SDS011;1641;51.306;12.384;2022-08-19T05:58:03;67.05;;;44.40;;
3257;SDS011;1641;51.306;12.384;2022-08-19T06:00:28;69.72;;;45.58;;
3257;SDS011;1641;51.306;12.384;2022-08-19T06:02:55;68.00;;;45.15;;
3257;SDS011;1641;51.306;12.384;2022-08-19T06:05:21;75.00;;;43.95;;
3257;SDS011;1641;51.306;12.384;2022-08-19T06:07:46;65.45;;;43.85;;
3257;SDS011;1641;51.306;12.384;2022-08-19T06:10:11;66.10;;;44.97;;
3257;SDS011;1641;51.306;12.384;2022-08-19T06:12:37;63.45;;;43.70;;
3257;SDS011;1641;51.306;12.384;2022-08-19T06:15:04;68.15;;;44.95;;
3257;SDS011;1641;51.306;12.384;2022-08-19T06:17:31;59.88;;;41.55;;
3257;SDS011;1641;51.306;12.384;2022-08-19T06:19:59;62.78;;;42.45;;
3257;SDS011;1641;51.306;12.384;2022-08-19T06:22:24;61.67;;;43.07;;
3257;SDS011;1641;51.306;12.384;2022-08-19T06:24:49;66.07;;;47.60;;
3257;SDS011;1641;51.306;12.384;2022-08-19T06:27:17;67.22;;;46.10;;
3257;SDS011;1641;51.306;12.384;2022-08-19T06:29:43;68.50;;;47.70;;
3257;SDS011;1641;51.306;12.384;2022-08-19T06:32:08;70.20;;;44.63;;
3257;SDS011;1641;51.306;12.384;2022-08-19T06:34:33;67.82;;;44.22;;
3257;SDS011;1641;51.306;12.384;2022-08-19T06:36:59;63.72;;;43.03;;
3257;SDS011;1641;51.306;12.384;2022-08-19T06:39:30;61.17;;;42.88;;
3257;SDS011;1641;51.306;12.384;2022-08-19T06:41:58;68.13;;;45.85;;
3257;SDS011;1641;51.306;12.384;2022-08-19T06:44:25;61.20;;;44.75;;
3257;SDS011;1641;51.306;12.384;2022-08-19T06:46:54;64.85;;;43.78;;
3257;SDS011;1641;51.306;12.384;2022-08-19T06:49:20;72.15;;;47.45;;
3257;SDS011;1641;51.306;12.384;2022-08-19T06:51:47;67.72;;;48.08;;
3257;SDS011;1641;51.306;12.384;2022-08-19T06:54:14;67.13;;;49.13;;
3257;SDS011;1641;51.306;12.384;2022-08-19T06:56:40;70.95;;;49.65;;
3257;SDS011;1641;51.306;12.384;2022-08-19T06:59:07;80.30;;;50.70;;
3257;SDS011;1641;51.306;12.384;2022-08-19T07:01:37;73.57;;;48.05;;
3257;SDS011;1641;51.306;12.384;2022-08-19T07:04:05;76.25;;;50.72;;
3257;SDS011;1641;51.306;12.384;2022-08-19T07:06:33;77.25;;;49.97;;
3257;SDS011;1641;51.306;12.384;2022-08-19T07:08:59;89.20;;;52.20;;
3257;SDS011;1641;51.306;12.384;2022-08-19T07:11:25;80.93;;;49.55;;
3257;SDS011;1641;51.306;12.384;2022-08-19T07:13:51;112.88;;;67.72;;
3257;SDS011;1641;51.306;12.384;2022-08-19T07:16:17;81.07;;;49.08;;
3257;SDS011;1641;51.306;12.384;2022-08-19T07:18:47;78.60;;;51.58;;
3257;SDS011;1641;51.306;12.384;2022-08-19T07:21:25;75.63;;;49.10;;
3257;SDS011;1641;51.306;12.384;2022-08-19T07:23:54;79.57;;;49.63;;
3257;SDS011;1641;51.306;12.384;2022-08-19T07:26:25;73.57;;;47.67;;
3257;SDS011;1641;51.306;12.384;2022-08-19T07:28:57;76.20;;;50.33;;
3257;SDS011;1641;51.306;12.384;2022-08-19T07:31:27;75.18;;;48.60;;
3257;SDS011;1641;51.306;12.384;2022-08-19T07:33:54;69.88;;;44.83;;
3257;SDS011;1641;51.306;12.384;2022-08-19T07:36:22;64.05;;;42.97;;
3257;SDS011;1641;51.306;12.384;2022-08-19T07:38:50;62.30;;;45.08;;
3257;SDS011;1641;51.306;12.384;2022-08-19T07:41:20;62.78;;;41.42;;
3257;SDS011;1641;51.306;12.384;2022-08-19T07:43:47;72.07;;;46.22;;
3257;SDS011;1641;51.306;12.384;2022-08-19T07:46:13;75.22;;;46.65;;
3257;SDS011;1641;51.306;12.384;2022-08-19T07:48:40;63.33;;;43.03;;
3257;SDS011;1641;51.306;12.384;2022-08-19T07:51:08;70.20;;;46.17;;
3257;SDS011;1641;51.306;12.384;2022-08-19T07:53:35;62.92;;;43.65;;
3257;SDS011;1641;51.306;12.384;2022-08-19T07:56:01;63.83;;;39.92;;
3257;SDS011;1641;51.306;12.384;2022-08-19T07:58:29;63.45;;;41.75;;
3257;SDS011;1641;51.306;12.384;2022-08-19T08:01:02;50.35;;;36.90;;
3257;SDS011;1641;51.306;12.384;2022-08-19T08:03:29;67.18;;;45.70;;
3257;SDS011;1641;51.306;12.384;2022-08-19T08:06:14;56.22;;;40.25;;
3257;SDS011;1641;51.306;12.384;2022-08-19T08:08:58;54.50;;;36.63;;
3257;SDS011;1641;51.306;12.384;2022-08-19T08:11:36;53.35;;;36.85;;
3257;SDS011;1641;51.306;12.384;2022-08-19T08:14:08;51.83;;;35.72;;
3257;SDS011;1641;51.306;12.384;2022-08-19T08:16:35;64.45;;;43.08;;
3257;SDS011;1641;51.306;12.384;2022-08-19T08:19:03;50.75;;;36.33;;
3257;SDS011;1641;51.306;12.384;2022-08-19T08:21:30;53.25;;;36.53;;
3257;SDS011;1641;51.306;12.384;2022-08-19T08:23:55;44.80;;;33.97;;
3257;SDS011;1641;51.306;12.384;2022-08-19T08:26:20;57.37;;;36.47;;
3257;SDS011;1641;51.306;12.384;2022-08-19T08:28:45;57.03;;;39.05;;
3257;SDS011;1641;51.306;12.384;2022-08-19T08:31:13;52.60;;;34.13;;
3257;SDS011;1641;51.306;12.384;2022-08-19T08:33:39;48.03;;;34.35;;
3257;SDS011;1641;51.306;12.384;2022-08-19T08:36:07;55.33;;;36.13;;
3257;SDS011;1641;51.306;12.384;2022-08-19T08:38:33;54.67;;;35.05;;
3257;SDS011;1641;51.306;12.384;2022-08-19T08:41:35;45.28;;;33.65;;
3257;SDS011;1641;51.306;12.384;2022-08-19T08:44:02;49.65;;;34.80;;
3257;SDS011;1641;51.306;12.384;2022-08-19T08:46:37;53.28;;;36.92;;
3257;SDS011;1641;51.306;12.384;2022-08-19T08:49:13;42.67;;;34.42;;
3257;SDS011;1641;51.306;12.384;2022-08-19T08:54:17;52.97;;;34.17;;
3257;SDS011;1641;51.306;12.384;2022-08-19T08:56:45;42.42;;;32.30;;
3257;SDS011;1641;51.306;12.384;2022-08-19T09:01:50;57.05;;;35.00;;
3257;SDS011;1641;51.306;12.384;2022-08-19T09:04:15;48.22;;;32.65;;
3257;SDS011;1641;51.306;12.384;2022-08-19T09:09:38;46.33;;;33.92;;
3257;SDS011;1641;51.306;12.384;2022-08-19T09:12:12;40.58;;;33.47;;
3257;SDS011;1641;51.306;12.384;2022-08-19T09:14:56;44.28;;;30.48;;
3257;SDS011;1641;51.306;12.384;2022-08-19T09:17:26;46.33;;;33.85;;
3257;SDS011;1641;51.306;12.384;2022-08-19T09:19:59;45.10;;;32.75;;
3257;SDS011;1641;51.306;12.384;2022-08-19T09:22:33;43.55;;;30.45;;
3257;SDS011;1641;51.306;12.384;2022-08-19T09:24:58;43.15;;;30.23;;
3257;SDS011;1641;51.306;12.384;2022-08-19T09:27:24;40.47;;;30.70;;
3257;SDS011;1641;51.306;12.384;2022-08-19T09:29:51;42.45;;;31.42;;
3257;SDS011;1641;51.306;12.384;2022-08-19T09:32:18;46.33;;;32.65;;
3257;SDS011;1641;51.306;12.384;2022-08-19T09:34:44;42.20;;;32.10;;
3257;SDS011;1641;51.306;12.384;2022-08-19T09:37:10;42.88;;;31.92;;
3257;SDS011;1641;51.306;12.384;2022-08-19T09:39:35;40.03;;;30.67;;
3257;SDS011;1641;51.306;12.384;2022-08-19T09:42:00;41.08;;;30.73;;
3257;SDS011;1641;51.306;12.384;2022-08-19T09:44:29;35.40;;;30.55;;
3257;SDS011;1641;51.306;12.384;2022-08-19T09:46:54;41.88;;;30.67;;
3257;SDS011;1641;51.306;12.384;2022-08-19T09:49:20;40.28;;;28.10;;
3257;SDS011;1641;51.306;12.384;2022-08-19T09:51:49;43.75;;;29.77;;
3257;SDS011;1641;51.306;12.384;2022-08-19T09:54:15;34.65;;;28.02;;
3257;SDS011;1641;51.306;12.384;2022-08-19T09:56:40;37.72;;;28.88;;
3257;SDS011;1641;51.306;12.384;2022-08-19T09:59:05;43.58;;;29.63;;
3257;SDS011;1641;51.306;12.384;2022-08-19T10:01:32;42.25;;;28.92;;
3257;SDS011;1641;51.306;12.384;2022-08-19T10:03:58;40.72;;;28.40;;
3257;SDS011;1641;51.306;12.384;2022-08-19T10:06:25;38.45;;;26.75;;
3257;SDS011;1641;51.306;12.384;2022-08-19T10:08:54;36.15;;;26.45;;
3257;SDS011;1641;51.306;12.384;2022-08-19T10:11:20;35.22;;;26.98;;
3257;SDS011;1641;51.306;12.384;2022-08-19T10:13:46;35.92;;;24.08;;
3257;SDS011;1641;51.306;12.384;2022-08-19T10:16:13;35.08;;;24.98;;
3257;SDS011;1641;51.306;12.384;2022-08-19T10:18:41;26.67;;;20.92;;
3257;SDS011;1641;51.306;12.384;2022-08-19T10:21:09;31.05;;;21.38;;
3257;SDS011;1641;51.306;12.384;2022-08-19T10:23:37;26.20;;;21.85;;
3257;SDS011;1641;51.306;12.384;2022-08-19T10:26:04;27.52;;;20.23;;
3257;SDS011;1641;51.306;12.384;2022-08-19T10:28:31;26.65;;;21.17;;
3257;SDS011;1641;51.306;12.384;2022-08-19T10:31:05;22.15;;;19.67;;
3257;SDS011;1641;51.306;12.384;2022-08-19T10:33:33;25.30;;;19.73;;
3257;SDS011;1641;51.306;12.384;2022-08-19T10:36:03;23.35;;;18.83;;
3257;SDS011;1641;51.306;12.384;2022-08-19T10:38:30;25.05;;;18.30;;
3257;SDS011;1641;51.306;12.384;2022-08-19T10:40:56;22.25;;;17.95;;
3257;SDS011;1641;51.306;12.384;2022-08-19T10:43:22;23.55;;;18.35;;
3257;SDS011;1641;51.306;12.384;2022-08-19T10:45:56;22.27;;;17.80;;
3257;SDS011;1641;51.306;12.384;2022-08-19T10:48:23;24.73;;;19.35;;
3257;SDS011;1641;51.306;12.384;2022-08-19T10:50:48;23.65;;;18.83;;
3257;SDS011;1641;51.306;12.384;2022-08-19T10:53:32;24.83;;;18.00;;
3257;SDS011;1641;51.306;12.384;2022-08-19T10:55:57;25.00;;;17.25;;
3257;SDS011;1641;51.306;12.384;2022-08-19T10:58:41;22.65;;;16.70;;
3257;SDS011;1641;51.306;12.384;2022-08-19T11:01:06;20.48;;;17.17;;
3257;SDS011;1641;51.306;12.384;2022-08-19T11:03:31;21.67;;;17.15;;
3257;SDS011;1641;51.306;12.384;2022-08-19T11:06:01;19.52;;;15.52;;
3257;SDS011;1641;51.306;12.384;2022-08-19T11:08:29;23.92;;;15.82;;
3257;SDS011;1641;51.306;12.384;2022-08-19T11:10:55;22.90;;;16.63;;
3257;SDS011;1641;51.306;12.384;2022-08-19T11:13:25;22.65;;;15.90;;
3257;SDS011;1641;51.306;12.384;2022-08-19T11:15:58;20.55;;;15.90;;
3257;SDS011;1641;51.306;12.384;2022-08-19T11:18:23;22.33;;;16.42;;
3257;SDS011;1641;51.306;12.384;2022-08-19T11:20:49;24.20;;;17.17;;
3257;SDS011;1641;51.306;12.384;2022-08-19T11:23:14;25.60;;;18.83;;
3257;SDS011;1641;51.306;12.384;2022-08-19T11:25:39;22.83;;;15.73;;
3257;SDS011;1641;51.306;12.384;2022-08-19T11:28:04;19.80;;;16.02;;
3257;SDS011;1641;51.306;12.384;2022-08-19T11:30:30;19.60;;;15.33;;
3257;SDS011;1641;51.306;12.384;2022-08-19T11:32:55;22.13;;;15.23;;
3257;SDS011;1641;51.306;12.384;2022-08-19T11:35:20;19.48;;;14.63;;
3257;SDS011;1641;51.306;12.384;2022-08-19T11:37:48;20.17;;;14.93;;
3257;SDS011;1641;51.306;12.384;2022-08-19T11:40:13;18.00;;;14.40;;
3257;SDS011;1641;51.306;12.384;2022-08-19T11:42:38;18.50;;;13.82;;
3257;SDS011;1641;51.306;12.384;2022-08-19T11:45:23;18.55;;;13.23;;
3257;SDS011;1641;51.306;12.384;2022-08-19T11:47:49;31.88;;;22.05;;
3257;SDS011;1641;51.306;12.384;2022-08-19T11:50:15;17.30;;;13.75;;
3257;SDS011;1641;51.306;12.384;2022-08-19T11:52:41;23.90;;;17.05;;
3257;SDS011;1641;51.306;12.384;2022-08-19T11:55:06;20.63;;;15.48;;
3257;SDS011;1641;51.306;12.384;2022-08-19T11:57:32;19.17;;;14.93;;
3257;SDS011;1641;51.306;12.384;2022-08-19T11:59:57;39.33;;;26.80;;
3257;SDS011;1641;51.306;12.384;2022-08-19T12:02:22;22.83;;;17.42;;
3257;SDS011;1641;51.306;12.384;2022-08-19T12:04:48;18.70;;;13.95;;
3257;SDS011;1641;51.306;12.384;2022-08-19T12:07:13;14.70;;;13.10;;
3257;SDS011;1641;51.306;12.384;2022-08-19T12:09:39;23.92;;;17.02;;
3257;SDS011;1641;51.306;12.384;2022-08-19T12:12:04;16.13;;;12.50;;
3257;SDS011;1641;51.306;12.384;2022-08-19T12:14:30;14.35;;;12.43;;
3257;SDS011;1641;51.306;12.384;2022-08-19T12:16:56;24.95;;;17.08;;
3257;SDS011;1641;51.306;12.384;2022-08-19T12:19:22;19.38;;;13.27;;
3257;SDS011;1641;51.306;12.384;2022-08-19T12:21:47;13.55;;;11.40;;
3257;SDS011;1641;51.306;12.384;2022-08-19T12:24:13;16.67;;;12.85;;
3257;SDS011;1641;51.306;12.384;2022-08-19T12:26:38;17.33;;;13.48;;
3257;SDS011;1641;51.306;12.384;2022-08-19T12:29:04;13.70;;;11.48;;
3257;SDS011;1641;51.306;12.384;2022-08-19T12:31:29;13.82;;;11.32;;
3257;SDS011;1641;51.306;12.384;2022-08-19T12:33:55;13.85;;;12.00;;
3257;SDS011;1641;51.306;12.384;2022-08-19T12:36:21;14.82;;;12.30;;
3257;SDS011;1641;51.306;12.384;2022-08-19T12:38:47;14.82;;;12.88;;
3257;SDS011;1641;51.306;12.384;2022-08-19T12:41:14;15.30;;;12.38;;
3257;SDS011;1641;51.306;12.384;2022-08-19T12:43:43;15.20;;;12.88;;
3257;SDS011;1641;51.306;12.384;2022-08-19T12:46:08;12.73;;;11.40;;
3257;SDS011;1641;51.306;12.384;2022-08-19T12:48:34;14.77;;;11.05;;
3257;SDS011;1641;51.306;12.384;2022-08-19T12:51:00;12.18;;;10.65;;
3257;SDS011;1641;51.306;12.384;2022-08-19T12:53:30;13.17;;;11.73;;
3257;SDS011;1641;51.306;12.384;2022-08-19T12:55:55;15.97;;;12.70;;
3257;SDS011;1641;51.306;12.384;2022-08-19T12:58:22;14.50;;;12.43;;
3257;SDS011;1641;51.306;12.384;2022-08-19T13:00:48;15.32;;;11.57;;
3257;SDS011;1641;51.306;12.384;2022-08-19T13:03:13;14.93;;;12.75;;
3257;SDS011;1641;51.306;12.384;2022-08-19T13:05:39;16.70;;;13.68;;
3257;SDS011;1641;51.306;12.384;2022-08-19T13:08:04;17.97;;;14.10;;
3257;SDS011;1641;51.306;12.384;2022-08-19T13:10:31;15.75;;;13.73;;
3257;SDS011;1641;51.306;12.384;2022-08-19T13:12:59;14.70;;;13.20;;
3257;SDS011;1641;51.306;12.384;2022-08-19T13:15:26;15.85;;;13.80;;
3257;SDS011;1641;51.306;12.384;2022-08-19T13:17:53;16.02;;;14.30;;
3257;SDS011;1641;51.306;12.384;2022-08-19T13:20:20;15.85;;;13.52;;
3257;SDS011;1641;51.306;12.384;2022-08-19T13:22:47;19.13;;;14.63;;
3257;SDS011;1641;51.306;12.384;2022-08-19T13:25:13;20.75;;;16.10;;
3257;SDS011;1641;51.306;12.384;2022-08-19T13:27:41;17.95;;;15.25;;
3257;SDS011;1641;51.306;12.384;2022-08-19T13:30:08;16.85;;;14.60;;
3257;SDS011;1641;51.306;12.384;2022-08-19T13:32:53;19.02;;;15.88;;
3257;SDS011;1641;51.306;12.384;2022-08-19T13:35:39;21.33;;;15.73;;
3257;SDS011;1641;51.306;12.384;2022-08-19T13:38:09;18.90;;;15.07;;
3257;SDS011;1641;51.306;12.384;2022-08-19T13:40:35;16.55;;;14.40;;
3257;SDS011;1641;51.306;12.384;2022-08-19T13:43:02;17.05;;;13.88;;
3257;SDS011;1641;51.306;12.384;2022-08-19T13:45:29;16.15;;;14.45;;
3257;SDS011;1641;51.306;12.384;2022-08-19T13:47:58;17.98;;;14.45;;
3257;SDS011;1641;51.306;12.384;2022-08-19T13:50:25;18.98;;;15.88;;
3257;SDS011;1641;51.306;12.384;2022-08-19T13:52:53;24.35;;;17.73;;
3257;SDS011;1641;51.306;12.384;2022-08-19T13:55:19;22.27;;;17.50;;
3257;SDS011;1641;51.306;12.384;2022-08-19T13:57:45;21.08;;;14.82;;
3257;SDS011;1641;51.306;12.384;2022-08-19T14:00:12;21.95;;;17.45;;
3257;SDS011;1641;51.306;12.384;2022-08-19T14:02:39;24.83;;;17.88;;
3257;SDS011;1641;51.306;12.384;2022-08-19T14:05:06;23.40;;;17.63;;
3257;SDS011;1641;51.306;12.384;2022-08-19T14:07:36;23.73;;;17.33;;
3257;SDS011;1641;51.306;12.384;2022-08-19T14:10:02;19.45;;;14.82;;
3257;SDS011;1641;51.306;12.384;2022-08-19T14:12:31;20.13;;;16.33;;
3257;SDS011;1641;51.306;12.384;2022-08-19T14:14:57;17.50;;;15.32;;
3257;SDS011;1641;51.306;12.384;2022-08-19T14:17:22;23.02;;;17.83;;
3257;SDS011;1641;51.306;12.384;2022-08-19T14:19:47;18.57;;;14.53;;
3257;SDS011;1641;51.306;12.384;2022-08-19T14:22:13;22.97;;;15.40;;
3257;SDS011;1641;51.306;12.384;2022-08-19T14:24:41;16.83;;;14.53;;
3257;SDS011;1641;51.306;12.384;2022-08-19T14:27:06;20.45;;;15.15;;
3257;SDS011;1641;51.306;12.384;2022-08-19T14:29:32;17.30;;;14.10;;
3257;SDS011;1641;51.306;12.384;2022-08-19T14:31:58;16.67;;;14.32;;
3257;SDS011;1641;51.306;12.384;2022-08-19T14:34:24;14.65;;;13.10;;
3257;SDS011;1641;51.306;12.384;2022-08-19T14:36:50;17.08;;;13.68;;
3257;SDS011;1641;51.306;12.384;2022-08-19T14:39:15;16.27;;;14.57;;
3257;SDS011;1641;51.306;12.384;2022-08-19T14:41:40;16.47;;;14.00;;
3257;SDS011;1641;51.306;12.384;2022-08-19T14:44:10;15.20;;;12.43;;
3257;SDS011;1641;51.306;12.384;2022-08-19T14:46:37;15.38;;;13.43;;
3257;SDS011;1641;51.306;12.384;2022-08-19T14:49:03;13.55;;;11.40;;